createdAt,value
2023-09-29T00:03:02.233Z,9.40
2023-09-29T00:06:05.312Z,9.60
2023-09-29T00:09:08.275Z,9.35
2023-09-29T00:12:11.198Z,9.70
2023-09-29T00:15:14.280Z,9.30
2023-09-29T00:18:17.340Z,9.30
2023-09-29T00:21:20.431Z,9.15
2023-09-29T00:24:23.522Z,9.40
2023-09-29T00:27:26.349Z,9.63
2023-09-29T00:30:29.516Z,10.00
2023-09-29T00:33:32.706Z,9.82
2023-09-29T00:36:35.905Z,9.63
2023-09-29T00:39:38.473Z,9.57
2023-09-29T00:42:43.374Z,9.65
2023-09-29T00:45:48.969Z,9.38
2023-09-29T00:48:53.904Z,10.05
2023-09-29T00:52:01.154Z,9.90
2023-09-29T00:55:06.812Z,9.90
2023-09-29T00:58:10.668Z,9.02
2023-09-29T01:01:14.522Z,10.07
2023-09-29T01:04:17.647Z,10.43
2023-09-29T01:07:21.668Z,10.25
2023-09-29T01:10:25.470Z,10.40
2023-09-29T01:13:28.613Z,10.23
2023-09-29T01:16:31.187Z,9.77
2023-09-29T01:19:34.912Z,9.77
2023-09-29T01:22:45.880Z,9.55
2023-09-29T01:25:48.913Z,9.40
2023-09-29T01:28:54.053Z,9.85
2023-09-29T01:31:57.022Z,9.88
2023-09-29T01:34:59.843Z,10.13
2023-09-29T01:38:03.485Z,9.88
2023-09-29T01:41:06.305Z,8.95
2023-09-29T01:44:09.312Z,9.35
2023-09-29T01:47:12.076Z,9.50
2023-09-29T01:50:16.583Z,9.50
2023-09-29T01:53:19.266Z,9.48
2023-09-29T01:56:22.829Z,9.60
2023-09-29T01:59:25.667Z,8.57
2023-09-29T02:02:30.010Z,9.43
2023-09-29T02:05:33.240Z,9.20
2023-09-29T02:08:36.510Z,10.02
2023-09-29T02:11:40.591Z,9.35
2023-09-29T02:14:43.544Z,9.00
2023-09-29T02:17:49.472Z,9.50
2023-09-29T02:20:52.565Z,9.50
2023-09-29T02:23:58.391Z,9.60
2023-09-29T02:27:01.161Z,9.57
2023-09-29T02:30:04.696Z,10.13
2023-09-29T02:33:08.124Z,10.27
2023-09-29T02:36:11.672Z,10.00
2023-09-29T02:39:14.218Z,9.90
2023-09-29T02:42:18.375Z,9.77
2023-09-29T02:45:21.036Z,10.35
2023-09-29T02:48:24.991Z,9.52
2023-09-29T02:51:27.629Z,9.60
2023-09-29T02:54:31.288Z,10.32
2023-09-29T02:57:34.880Z,10.77
2023-09-29T03:00:40.605Z,10.32
2023-09-29T03:03:45.357Z,10.35
2023-09-29T03:06:48.936Z,9.85
2023-09-29T03:09:52.029Z,10.82
2023-09-29T03:12:57.990Z,10.90
2023-09-29T03:16:02.745Z,10.55
2023-09-29T03:19:05.660Z,10.50
2023-09-29T03:22:08.960Z,10.50
2023-09-29T03:25:18.106Z,10.57
2023-09-29T03:28:21.145Z,10.70
2023-09-29T03:31:25.514Z,10.95
2023-09-29T03:34:28.022Z,10.60
2023-09-29T03:37:30.981Z,10.93
2023-09-29T03:40:33.792Z,11.55
2023-09-29T03:43:36.813Z,11.20
2023-09-29T03:46:40.308Z,11.43
2023-09-29T03:49:44.361Z,11.45
2023-09-29T03:52:49.928Z,11.10
2023-09-29T03:55:53.496Z,10.88
2023-09-29T03:58:57.310Z,11.07
2023-09-29T04:02:00.388Z,10.30
2023-09-29T04:05:03.685Z,10.60
2023-09-29T04:08:06.738Z,10.98
2023-09-29T04:11:10.161Z,10.25
2023-09-29T04:14:20.541Z,10.48
2023-09-29T04:17:38.674Z,10.32
2023-09-29T04:20:42.579Z,10.30
2023-09-29T04:23:45.837Z,10.23
2023-09-29T04:26:49.603Z,9.95
2023-09-29T04:29:53.476Z,10.35
2023-09-29T04:32:56.339Z,10.27
2023-09-29T04:35:59.487Z,10.35
2023-09-29T04:39:02.413Z,9.75
2023-09-29T04:42:06.184Z,10.18
2023-09-29T04:45:09.658Z,10.20
2023-09-29T04:48:12.983Z,10.85
2023-09-29T04:51:15.762Z,9.65
2023-09-29T04:54:19.332Z,10.55
2023-09-29T04:57:23.358Z,10.40
2023-09-29T05:00:27.920Z,10.10
2023-09-29T05:03:30.884Z,9.98
2023-09-29T05:06:34.077Z,9.82
2023-09-29T05:09:36.655Z,10.48
2023-09-29T05:12:39.733Z,10.75
2023-09-29T05:15:42.706Z,11.12
2023-09-29T05:18:46.377Z,10.55
2023-09-29T05:21:49.265Z,10.00
2023-09-29T05:24:54.861Z,10.13
2023-09-29T05:27:57.372Z,10.38
2023-09-29T05:31:01.094Z,10.57
2023-09-29T05:34:03.916Z,11.00
2023-09-29T05:37:06.970Z,11.07
2023-09-29T05:40:10.367Z,11.57
2023-09-29T05:43:14.898Z,10.88
2023-09-29T05:46:17.784Z,10.68
2023-09-29T05:49:20.981Z,10.73
2023-09-29T05:52:23.757Z,10.32
2023-09-29T05:55:27.361Z,10.40
2023-09-29T05:58:31.887Z,10.75
2023-09-29T06:01:34.729Z,10.50
2023-09-29T06:04:37.685Z,10.52
2023-09-29T06:07:41.214Z,10.65
2023-09-29T06:10:45.461Z,11.10
2023-09-29T06:13:48.164Z,10.43
2023-09-29T06:16:51.066Z,10.23
2023-09-29T06:19:53.861Z,10.10
2023-09-29T06:22:56.953Z,10.55
2023-09-29T06:26:01.142Z,10.52
2023-09-29T06:29:06.007Z,9.20
2023-09-29T06:32:12.031Z,9.27
2023-09-29T06:35:16.087Z,10.13
2023-09-29T06:38:19.035Z,11.50
2023-09-29T06:41:21.901Z,9.70
2023-09-29T06:44:25.023Z,9.75
2023-09-29T06:47:28.226Z,9.38
2023-09-29T06:50:30.749Z,9.68
2023-09-29T06:53:33.886Z,10.20
2023-09-29T06:56:37.360Z,10.32
2023-09-29T06:59:40.614Z,9.55
2023-09-29T07:02:44.112Z,9.52
2023-09-29T07:05:47.756Z,9.23
2023-09-29T07:08:51.024Z,9.63
2023-09-29T07:11:54.044Z,9.00
2023-09-29T07:14:56.860Z,10.35
2023-09-29T07:18:00.181Z,9.60
2023-09-29T07:21:02.934Z,9.05
2023-09-29T07:24:08.746Z,9.00
2023-09-29T07:27:13.156Z,8.32
2023-09-29T07:30:16.686Z,7.65
2023-09-29T07:33:19.700Z,8.05
2023-09-29T07:36:22.924Z,6.65
2023-09-29T07:39:25.594Z,6.30
2023-09-29T07:42:28.447Z,5.68
2023-09-29T07:45:31.058Z,5.68
2023-09-29T07:48:34.027Z,5.60
2023-09-29T07:51:39.497Z,5.10
2023-09-29T07:54:42.581Z,5.45
2023-09-29T07:57:45.812Z,5.47
2023-09-29T08:00:49.732Z,4.85
2023-09-29T08:03:53.292Z,5.20
2023-09-29T08:06:56.645Z,5.18
2023-09-29T08:09:59.842Z,5.80
2023-09-29T08:13:02.405Z,4.87
2023-09-29T08:16:05.572Z,5.30
2023-09-29T08:19:08.647Z,5.10
2023-09-29T08:22:12.082Z,5.50
2023-09-29T08:25:15.737Z,5.32
2023-09-29T08:28:18.909Z,5.10
2023-09-29T08:31:21.974Z,5.00
2023-09-29T08:34:31.438Z,4.97
2023-09-29T08:37:34.342Z,4.93
2023-09-29T08:40:41.919Z,5.30
2023-09-29T08:43:55.816Z,4.87
2023-09-29T08:50:07.634Z,6.53
2023-09-29T08:53:12.051Z,5.68
2023-09-29T08:56:17.504Z,6.47
2023-09-29T08:59:20.398Z,6.00
2023-09-29T09:02:26.394Z,6.07
2023-09-29T09:05:29.520Z,6.12
2023-09-29T09:08:32.811Z,6.10
2023-09-29T09:11:44.053Z,5.93
2023-09-29T09:14:47.140Z,6.45
2023-09-29T09:17:50.494Z,6.97
2023-09-29T09:20:53.876Z,6.15
2023-09-29T09:23:58.762Z,6.30
2023-09-29T09:27:04.527Z,6.70
2023-09-29T09:30:22.233Z,6.62
2023-09-29T09:33:26.826Z,6.70
2023-09-29T09:36:30.044Z,6.37
2023-09-29T09:39:34.808Z,6.35
2023-09-29T09:42:37.761Z,6.10
2023-09-29T09:45:43.961Z,5.80
2023-09-29T09:49:14.990Z,5.55
2023-09-29T09:52:25.371Z,6.15
2023-09-29T09:55:41.393Z,5.80
2023-09-29T09:58:44.692Z,6.25
2023-09-29T10:01:50.447Z,6.22
2023-09-29T10:04:55.520Z,6.20
2023-09-29T10:08:08.565Z,5.78
2023-09-29T10:11:12.726Z,5.72
2023-09-29T10:14:15.642Z,5.85
2023-09-29T10:17:19.035Z,5.72
2023-09-29T10:20:27.842Z,5.45
2023-09-29T10:23:31.478Z,6.40
2023-09-29T10:26:49.860Z,5.55
2023-09-29T10:30:12.487Z,5.80
2023-09-29T10:33:15.228Z,5.68
2023-09-29T10:36:19.681Z,5.40
2023-09-29T10:39:30.312Z,5.97
2023-09-29T10:42:39.441Z,5.50
2023-09-29T10:45:42.275Z,5.28
2023-09-29T10:48:49.949Z,5.68
2023-09-29T10:51:53.925Z,5.30
2023-09-29T10:55:00.077Z,5.05
2023-09-29T10:58:04.667Z,4.80
2023-09-29T11:01:07.821Z,4.75
2023-09-29T11:04:12.015Z,4.70
2023-09-29T11:07:18.331Z,4.53
2023-09-29T11:10:21.775Z,4.18
2023-09-29T11:13:25.855Z,4.32
2023-09-29T11:16:33.104Z,3.90
2023-09-29T11:19:37.175Z,4.87
2023-09-29T11:22:39.950Z,4.05
2023-09-29T11:25:59.275Z,4.15
2023-09-29T11:29:02.118Z,3.80
2023-09-29T11:32:05.739Z,3.78
2023-09-29T11:35:14.919Z,4.00
2023-09-29T11:38:21.472Z,4.18
2023-09-29T11:41:24.538Z,4.20
2023-09-29T11:44:30.213Z,4.30
2023-09-29T11:47:33.261Z,3.72
2023-09-29T11:50:36.406Z,4.07
2023-09-29T11:53:43.701Z,3.78
2023-09-29T11:56:46.931Z,3.80
2023-09-29T11:59:49.994Z,3.30
2023-09-29T12:02:54.883Z,3.30
2023-09-29T12:06:00.022Z,3.90
2023-09-29T12:09:04.550Z,3.60
2023-09-29T12:12:07.525Z,4.12
2023-09-29T12:15:13.167Z,3.12
2023-09-29T12:18:17.754Z,3.60
2023-09-29T12:21:20.776Z,3.10
2023-09-29T12:24:24.766Z,3.85
2023-09-29T12:27:27.832Z,3.70
2023-09-29T12:30:31.894Z,3.67
2023-09-29T12:33:34.825Z,3.75
2023-09-29T12:36:37.750Z,3.70
2023-09-29T12:39:40.771Z,4.07
2023-09-29T12:42:51.653Z,3.85
2023-09-29T12:45:55.496Z,4.12
2023-09-29T12:48:59.486Z,4.10
2023-09-29T12:52:03.591Z,4.00
2023-09-29T12:55:08.260Z,4.47
2023-09-29T12:58:10.891Z,4.10
2023-09-29T13:01:13.985Z,3.90
2023-09-29T13:04:17.040Z,4.55
2023-09-29T13:07:20.624Z,4.10
2023-09-29T13:10:23.662Z,4.30
2023-09-29T13:13:27.305Z,4.05
2023-09-29T13:16:30.027Z,4.10
2023-09-29T13:19:33.193Z,4.50
2023-09-29T13:22:35.816Z,4.12
2023-09-29T13:25:39.338Z,4.40
2023-09-29T13:28:42.150Z,4.57
2023-09-29T13:31:45.371Z,4.85
2023-09-29T13:34:48.216Z,4.57
2023-09-29T13:37:51.261Z,4.85
2023-09-29T13:40:54.438Z,4.40
2023-09-29T13:43:58.047Z,4.57
2023-09-29T13:47:04.402Z,4.15
2023-09-29T13:50:12.491Z,4.20
2023-09-29T13:53:15.927Z,4.18
2023-09-29T13:56:20.277Z,4.60
2023-09-29T13:59:22.856Z,4.10
2023-09-29T14:02:26.365Z,3.62
2023-09-29T14:05:29.697Z,4.18
2023-09-29T14:08:33.224Z,3.97
2023-09-29T14:11:36.366Z,4.32
2023-09-29T14:14:41.380Z,3.95
2023-09-29T14:17:46.191Z,4.32
2023-09-29T14:20:49.156Z,3.83
2023-09-29T14:23:52.282Z,4.10
2023-09-29T14:26:54.960Z,4.10
2023-09-29T14:29:57.959Z,4.35
2023-09-29T14:33:03.907Z,4.00
2023-09-29T14:36:08.332Z,3.97
2023-09-29T14:39:11.016Z,4.53
2023-09-29T14:42:16.342Z,4.40
2023-09-29T14:45:19.201Z,5.00
2023-09-29T14:48:22.481Z,4.55
2023-09-29T14:51:25.373Z,4.12
2023-09-29T14:54:28.685Z,4.22
2023-09-29T14:57:37.089Z,4.00
2023-09-29T15:00:43.578Z,3.87
2023-09-29T15:03:47.026Z,4.53
2023-09-29T15:06:52.687Z,3.92
2023-09-29T15:09:55.844Z,4.60
2023-09-29T15:13:00.892Z,4.40
2023-09-29T15:16:05.719Z,4.93
2023-09-29T15:19:15.438Z,4.90
2023-09-29T15:22:21.096Z,5.10
2023-09-29T15:25:24.248Z,4.75
2023-09-29T15:28:26.826Z,4.72
2023-09-29T15:31:30.506Z,4.87
2023-09-29T15:34:35.793Z,5.00
2023-09-29T15:37:39.556Z,5.18
2023-09-29T15:40:43.046Z,5.03
2023-09-29T15:43:45.936Z,4.70
2023-09-29T15:46:48.784Z,4.75
2023-09-29T15:49:51.755Z,4.75
2023-09-29T15:52:54.659Z,4.57
2023-09-29T15:55:58.271Z,4.78
2023-09-29T15:59:01.206Z,4.53
2023-09-29T16:02:19.687Z,4.80
2023-09-29T16:05:28.894Z,4.82
2023-09-29T16:08:34.235Z,5.03
2023-09-29T16:11:37.230Z,4.72
2023-09-29T16:14:40.053Z,8.98
2023-09-29T16:17:44.873Z,6.47
2023-09-29T16:20:47.639Z,5.30
2023-09-29T16:23:50.544Z,6.10
2023-09-29T16:26:53.531Z,5.22
2023-09-29T16:29:56.714Z,5.60
2023-09-29T16:33:01.308Z,5.47
2023-09-29T16:36:05.119Z,5.20
2023-09-29T16:39:07.909Z,5.43
2023-09-29T16:42:11.330Z,5.35
2023-09-29T16:45:17.021Z,5.78
2023-09-29T16:48:20.484Z,6.25
2023-09-29T16:51:26.693Z,5.87
2023-09-29T16:54:31.223Z,5.60
2023-09-29T16:57:36.453Z,6.10
2023-09-29T17:00:39.525Z,6.12
2023-09-29T17:03:45.050Z,6.25
2023-09-29T17:06:48.206Z,6.00
2023-09-29T17:09:52.492Z,5.97
2023-09-29T17:12:55.347Z,6.10
2023-09-29T17:16:04.862Z,6.78
2023-09-29T17:19:08.569Z,6.65
2023-09-29T17:22:11.465Z,6.72
2023-09-29T17:25:14.610Z,7.43
2023-09-29T17:28:17.926Z,7.28
2023-09-29T17:31:21.989Z,7.25
2023-09-29T17:34:24.838Z,7.07
2023-09-29T17:37:28.508Z,7.70
2023-09-29T17:40:31.040Z,8.60
2023-09-29T17:43:33.972Z,7.87
2023-09-29T17:46:40.191Z,8.98
2023-09-29T17:49:43.649Z,8.85
2023-09-29T17:52:46.610Z,7.70
2023-09-29T17:55:50.268Z,8.73
2023-09-29T17:58:52.816Z,7.47
2023-09-29T18:01:55.782Z,6.97
2023-09-29T18:04:59.983Z,7.28
2023-09-29T18:08:03.540Z,7.72
2023-09-29T18:11:06.577Z,6.85
2023-09-29T18:14:10.540Z,7.05
2023-09-29T18:17:13.692Z,6.75
2023-09-29T18:20:18.469Z,6.47
2023-09-29T18:23:21.957Z,7.07
2023-09-29T18:26:24.937Z,7.03
2023-09-29T18:29:28.155Z,7.40
2023-09-29T18:32:31.083Z,6.85
2023-09-29T18:35:35.317Z,6.93
2023-09-29T18:38:38.488Z,6.82
2023-09-29T18:41:42.022Z,6.50
2023-09-29T18:44:45.190Z,6.82
2023-09-29T18:47:48.783Z,7.45
2023-09-29T18:50:51.867Z,7.47
2023-09-29T18:53:55.085Z,7.20
2023-09-29T18:56:57.945Z,7.43
2023-09-29T19:00:02.281Z,7.43
2023-09-29T19:03:05.613Z,7.70
2023-09-29T19:06:09.062Z,7.72
2023-09-29T19:09:13.311Z,7.20
2023-09-29T19:12:16.664Z,6.85
2023-09-29T19:15:21.535Z,7.30
2023-09-29T19:18:25.418Z,7.05
2023-09-29T19:21:28.996Z,7.55
2023-09-29T19:24:33.646Z,6.82
2023-09-29T19:27:36.972Z,7.00
2023-09-29T19:30:40.258Z,7.30
2023-09-29T19:33:45.344Z,7.03
2023-09-29T19:36:48.927Z,7.15
2023-09-29T19:39:52.077Z,7.45
2023-09-29T19:42:55.585Z,7.07
2023-09-29T19:45:58.963Z,7.50
2023-09-29T19:49:02.508Z,6.95
2023-09-29T19:52:06.083Z,7.60
2023-09-29T19:55:10.767Z,7.22
2023-09-29T19:58:14.252Z,7.47
2023-09-29T20:01:18.423Z,7.47
2023-09-29T20:04:22.576Z,8.30
2023-09-29T20:07:25.842Z,7.68
2023-09-29T20:10:29.035Z,7.95
2023-09-29T20:13:32.305Z,8.40
2023-09-29T20:16:35.522Z,8.77
2023-09-29T20:19:38.471Z,9.40
2023-09-29T20:22:41.695Z,8.60
2023-09-29T20:25:44.643Z,8.38
2023-09-29T20:28:47.800Z,8.10
2023-09-29T20:31:50.462Z,8.00
2023-09-29T20:34:56.028Z,7.40
2023-09-29T20:37:58.972Z,7.53
2023-09-29T20:41:02.107Z,7.47
2023-09-29T20:44:04.828Z,8.13
2023-09-29T20:47:08.151Z,8.05
2023-09-29T20:50:11.548Z,8.07
2023-09-29T20:53:14.859Z,7.65
2023-09-29T20:56:19.248Z,7.70
2023-09-29T20:59:22.303Z,7.72
2023-09-29T21:02:24.881Z,8.18
2023-09-29T21:05:28.098Z,8.60
2023-09-29T21:08:30.849Z,8.02
2023-09-29T21:11:33.664Z,7.85
2023-09-29T21:14:36.502Z,7.75
2023-09-29T21:17:39.624Z,8.55
2023-09-29T21:20:42.385Z,7.80
2023-09-29T21:23:45.778Z,8.30
2023-09-29T21:26:48.551Z,8.10
2023-09-29T21:29:51.422Z,7.87
2023-09-29T21:32:54.058Z,8.25
2023-09-29T21:35:56.946Z,8.02
2023-09-29T21:39:00.126Z,8.38
2023-09-29T21:42:04.124Z,8.05
2023-09-29T21:45:07.402Z,7.85
2023-09-29T21:48:10.681Z,8.50
2023-09-29T21:51:13.241Z,8.25
2023-09-29T21:54:16.522Z,8.20
2023-09-29T21:57:19.788Z,7.68
2023-09-29T22:00:23.128Z,8.10
2023-09-29T22:03:26.925Z,8.10
2023-09-29T22:06:31.260Z,8.85
2023-09-29T22:09:34.884Z,8.40
2023-09-29T22:12:37.691Z,9.18
2023-09-29T22:15:40.974Z,8.18
2023-09-29T22:18:43.718Z,8.30
2023-09-29T22:21:46.554Z,8.43
2023-09-29T22:24:51.185Z,8.75
2023-09-29T22:27:54.009Z,8.98
2023-09-29T22:30:56.917Z,8.90
2023-09-29T22:34:00.272Z,8.90
2023-09-29T22:37:03.099Z,9.00
2023-09-29T22:40:08.334Z,8.55
2023-09-29T22:43:12.538Z,8.70
2023-09-29T22:46:15.971Z,9.00
2023-09-29T22:49:20.630Z,9.60
2023-09-29T22:52:25.313Z,8.95
2023-09-29T22:55:28.159Z,9.25
2023-09-29T22:58:32.937Z,9.63
2023-09-29T23:01:35.856Z,9.25
2023-09-29T23:04:39.041Z,9.63
2023-09-29T23:07:42.116Z,9.45
2023-09-29T23:10:46.065Z,9.07
2023-09-29T23:13:49.915Z,9.50
2023-09-29T23:16:54.109Z,9.68
2023-09-29T23:19:56.980Z,9.88
2023-09-29T23:23:02.678Z,10.05
2023-09-29T23:26:05.407Z,10.88
2023-09-29T23:29:08.557Z,10.32
2023-09-29T23:32:11.527Z,9.85
2023-09-29T23:35:14.644Z,9.98
2023-09-29T23:38:17.177Z,10.43
2023-09-29T23:41:20.307Z,10.10
2023-09-29T23:44:30.684Z,10.40
2023-09-29T23:47:34.648Z,10.18
2023-09-29T23:50:37.478Z,11.02
2023-09-29T23:53:40.495Z,10.95
2023-09-29T23:56:43.858Z,10.95
2023-09-29T23:59:47.128Z,10.75
